Time;durP1;ratioP1;P1;durP2;ratioP2;P2;SDS_P1;SDS_P2;PMS_P1;PMS_P2;Temp;Humidity;BMP_temperature;BMP_pressure;BME280_temperature;BME280_humidity;BME280_pressure;Samples;Min_cycle;Max_cycle;Signal;HPM_P1;HPM_P2
2022/09/11 00:01:46;;;;;;;27.63;18.63;;;17.00;99.90;;;;;;5075522;28;20639;-68
2022/09/11 00:04:12;;;;;;;22.30;19.00;;;17.10;99.90;;;;;;5075472;28;20165;-67
2022/09/11 00:06:38;;;;;;;28.07;19.77;;;17.00;99.90;;;;;;5074728;28;20201;-67
2022/09/11 00:09:06;;;;;;;25.20;19.40;;;17.00;99.90;;;;;;5075178;28;20157;-67
2022/09/11 00:11:34;;;;;;;25.80;19.77;;;17.00;99.90;;;;;;5075452;28;20180;-67
2022/09/11 00:14:00;;;;;;;26.10;19.00;;;16.90;99.90;;;;;;5075264;28;20200;-67
2022/09/11 00:16:35;;;;;;;25.00;19.43;;;16.90;99.90;;;;;;5073750;28;20259;-68
2022/09/11 00:19:07;;;;;;;29.30;21.03;;;16.90;99.90;;;;;;5075272;28;20168;-68
2022/09/11 00:21:33;;;;;;;28.27;20.40;;;16.80;99.90;;;;;;5075307;28;20176;-68
2022/09/11 00:23:58;;;;;;;29.77;21.33;;;16.90;99.90;;;;;;5074751;28;20169;-68
2022/09/11 00:26:24;;;;;;;30.10;20.70;;;16.80;99.90;;;;;;5074833;28;20230;-68
2022/09/11 00:28:51;;;;;;;32.80;21.93;;;16.80;99.90;;;;;;5073716;28;20658;-68
2022/09/11 00:31:22;;;;;;;34.73;22.60;;;16.70;99.90;;;;;;5074853;28;20652;-68
2022/09/11 00:33:48;;;;;;;32.73;21.40;;;16.80;99.90;;;;;;5075212;28;20259;-68
2022/09/11 00:36:20;;;;;;;30.17;22.13;;;16.60;99.90;;;;;;5074772;28;20176;-68
2022/09/11 00:38:46;;;;;;;28.37;23.20;;;16.60;99.90;;;;;;5073617;28;20644;-68
2022/09/11 00:41:15;;;;;;;32.30;22.17;;;16.50;99.90;;;;;;5074740;28;20203;-68
2022/09/11 00:43:56;;;;;;;35.60;22.07;;;16.40;99.90;;;;;;5074956;28;20208;-68
2022/09/11 00:46:31;;;;;;;30.63;21.73;;;16.40;99.90;;;;;;5074613;28;20709;-68
2022/09/11 00:48:59;;;;;;;35.20;24.13;;;16.40;99.90;;;;;;5074656;28;20251;-68
2022/09/11 00:51:32;;;;;;;37.17;24.97;;;16.40;99.90;;;;;;5074343;28;20180;-68
2022/09/11 00:53:59;;;;;;;34.83;23.53;;;16.40;99.90;;;;;;5074605;28;20183;-68
2022/09/11 00:56:30;;;;;;;37.43;24.10;;;16.40;99.90;;;;;;5074708;28;20199;-68
2022/09/11 00:58:57;;;;;;;34.00;25.00;;;16.30;99.90;;;;;;5074405;28;20182;-68
2022/09/11 01:01:23;;;;;;;36.50;25.27;;;16.30;99.90;;;;;;5074330;28;20169;-68
2022/09/11 01:03:49;;;;;;;36.57;25.90;;;16.30;99.90;;;;;;5074074;28;20586;-68
2022/09/11 01:06:15;;;;;;;34.80;25.93;;;16.30;99.90;;;;;;5073813;28;20243;-68
2022/09/11 01:08:42;;;;;;;39.40;25.80;;;16.30;99.90;;;;;;5074285;28;20632;-68
2022/09/11 01:11:27;;;;;;;34.33;25.53;;;16.30;99.90;;;;;;5074238;28;20169;-68
2022/09/11 01:13:53;;;;;;;37.57;25.50;;;16.30;99.90;;;;;;5074300;28;20180;-68
2022/09/11 01:16:36;;;;;;;35.33;25.77;;;16.30;99.90;;;;;;5073777;28;20299;-68
2022/09/11 01:19:33;;;;;;;33.13;23.93;;;16.30;99.90;;;;;;5073283;28;20223;-68
2022/09/11 01:22:30;;;;;;;39.30;24.43;;;16.10;99.90;;;;;;5073787;28;20168;-68
2022/09/11 01:25:16;;;;;;;38.00;25.57;;;16.00;99.90;;;;;;5072626;28;20228;-68
2022/09/11 01:27:49;;;;;;;44.40;25.57;;;16.00;99.90;;;;;;5073824;28;20241;-68
2022/09/11 01:30:31;;;;;;;41.00;26.20;;;16.10;99.90;;;;;;5073853;28;20165;-68
2022/09/11 01:33:10;;;;;;;42.93;27.13;;;16.10;99.90;;;;;;5073864;28;20156;-67
2022/09/11 01:36:01;;;;;;;40.67;26.93;;;16.10;99.90;;;;;;5073370;28;20252;-67
2022/09/11 01:38:30;;;;;;;44.77;26.90;;;16.10;99.90;;;;;;5073864;28;20176;-67
2022/09/11 01:41:06;;;;;;;40.07;26.63;;;16.10;99.90;;;;;;5073553;28;20500;-67
2022/09/11 01:43:39;;;;;;;38.30;26.47;;;16.10;99.90;;;;;;5073587;28;20176;-67
2022/09/11 01:46:07;;;;;;;40.93;26.43;;;16.10;99.90;;;;;;5073489;28;20211;-67
2022/09/11 01:48:40;;;;;;;43.47;28.83;;;16.10;99.90;;;;;;5073553;28;20169;-67
2022/09/11 01:51:12;;;;;;;45.13;28.93;;;16.10;99.90;;;;;;5073125;28;20204;-67
2022/09/11 01:53:42;;;;;;;44.33;29.40;;;16.00;99.90;;;;;;5073460;28;20246;-67
2022/09/11 01:56:16;;;;;;;45.83;29.47;;;16.10;99.90;;;;;;5073499;28;20176;-67
2022/09/11 01:58:45;;;;;;;48.30;30.40;;;16.00;99.90;;;;;;5073530;28;20254;-67
2022/09/11 02:01:23;;;;;;;43.60;29.63;;;16.00;99.90;;;;;;5073305;28;20697;-67
2022/09/11 02:04:03;;;;;;;45.13;30.03;;;15.90;99.90;;;;;;5073050;28;20194;-67
2022/09/11 02:06:39;;;;;;;43.30;29.47;;;15.90;99.90;;;;;;5073059;28;20568;-67
2022/09/11 02:09:08;;;;;;;44.80;32.10;;;15.90;99.90;;;;;;5073321;28;20160;-67
2022/09/11 02:11:39;;;;;;;39.37;27.43;;;15.70;99.90;;;;;;5073239;28;20169;-67
2022/09/11 02:14:35;;;;;;;37.40;25.90;;;15.60;99.90;;;;;;5073254;28;20234;-68
2022/09/11 02:17:25;;;;;;;37.80;26.80;;;15.50;99.90;;;;;;5073163;28;20546;-67
2022/09/11 02:19:53;;;;;;;47.60;27.73;;;15.60;99.90;;;;;;5072866;28;20172;-68
2022/09/11 02:22:19;;;;;;;50.13;29.07;;;15.60;99.90;;;;;;5073240;28;20196;-67
2022/09/11 02:24:45;;;;;;;45.30;28.07;;;15.60;99.90;;;;;;5073136;28;20221;-68
2022/09/11 02:27:17;;;;;;;46.00;29.23;;;15.70;99.90;;;;;;5073028;28;20181;-67
2022/09/11 02:29:42;;;;;;;48.10;29.17;;;15.70;99.90;;;;;;5076313;28;20177;-68
2022/09/11 02:32:10;;;;;;;50.03;29.30;;;15.70;99.90;;;;;;5079814;28;20165;-67
2022/09/11 02:34:38;;;;;;;49.60;29.63;;;15.70;99.90;;;;;;5079448;28;20230;-68
2022/09/11 02:37:15;;;;;;;47.60;28.87;;;15.80;99.90;;;;;;5079824;28;20612;-67
2022/09/11 02:39:44;;;;;;;52.63;29.50;;;15.60;99.90;;;;;;5079420;28;20179;-67
2022/09/11 02:42:50;;;;;;;50.10;29.90;;;15.60;99.90;;;;;;5079725;28;20236;-67
2022/09/11 02:45:41;;;;;;;50.90;29.57;;;15.60;99.90;;;;;;5079536;28;20212;-67
2022/09/11 02:48:26;;;;;;;56.23;31.13;;;15.60;99.90;;;;;;5079139;28;20164;-67
2022/09/11 02:50:57;;;;;;;50.97;30.73;;;15.60;99.90;;;;;;5079645;28;20180;-69
2022/09/11 02:53:26;;;;;;;54.20;31.47;;;15.60;99.90;;;;;;5079589;28;20258;-67
2022/09/11 02:56:02;;;;;;;50.90;30.27;;;15.70;99.90;;;;;;5079380;28;20681;-67
2022/09/11 02:58:45;;;;;;;55.07;31.77;;;15.70;99.90;;;;;;5079491;28;20276;-67
2022/09/11 03:01:11;;;;;;;57.90;31.27;;;15.70;99.90;;;;;;5079588;28;20222;-68
2022/09/11 03:03:44;;;;;;;54.87;30.53;;;15.70;99.90;;;;;;5079093;28;20580;-67
2022/09/11 03:06:18;;;;;;;49.93;30.03;;;15.80;99.90;;;;;;5079260;28;20212;-68
2022/09/11 03:08:44;;;;;;;55.67;30.57;;;15.80;99.90;;;;;;5079205;28;20172;-68
2022/09/11 03:11:10;;;;;;;53.63;31.37;;;15.70;99.90;;;;;;5079274;28;20173;-68
2022/09/11 03:13:36;;;;;;;49.97;31.53;;;15.70;99.90;;;;;;5079437;28;20181;-68
2022/09/11 03:16:04;;;;;;;54.97;32.33;;;15.70;99.90;;;;;;5078549;28;20740;-69
2022/09/11 03:18:30;;;;;;;48.77;30.93;;;15.70;99.90;;;;;;5079186;28;20168;-68
2022/09/11 03:20:56;;;;;;;56.50;32.90;;;15.70;99.90;;;;;;5079850;28;20226;-69
2022/09/11 03:23:22;;;;;;;56.53;33.30;;;15.80;99.90;;;;;;5078985;28;20168;-69
2022/09/11 03:25:47;;;;;;;57.53;32.30;;;15.70;99.90;;;;;;5079109;28;20204;-68
2022/09/11 03:28:13;;;;;;;47.97;31.77;;;15.80;99.90;;;;;;5077897;28;20176;-69
2022/09/11 03:30:40;;;;;;;50.83;31.93;;;15.70;99.90;;;;;;5079149;28;20182;-68
2022/09/11 03:33:06;;;;;;;49.27;31.50;;;15.70;99.90;;;;;;5079221;28;20191;-67
2022/09/11 03:35:33;;;;;;;53.80;31.90;;;15.70;99.90;;;;;;5079225;28;20165;-67
2022/09/11 03:37:59;;;;;;;55.67;32.73;;;15.80;99.90;;;;;;5079133;28;20251;-68
2022/09/11 03:40:25;;;;;;;55.10;32.63;;;15.70;99.90;;;;;;5078025;28;20177;-68
2022/09/11 03:42:51;;;;;;;54.47;32.20;;;15.70;99.90;;;;;;5075209;28;20176;-67
2022/09/11 03:45:18;;;;;;;49.27;29.67;;;15.60;99.90;;;;;;5075441;28;20207;-68
2022/09/11 03:47:44;;;;;;;91.93;36.07;;;15.50;99.90;;;;;;5075705;28;20180;-68
2022/09/11 03:50:10;;;;;;;75.20;34.57;;;15.50;99.90;;;;;;5074481;28;20172;-68
2022/09/11 03:52:36;;;;;;;78.63;33.77;;;15.50;99.90;;;;;;5075588;28;20632;-68
2022/09/11 03:55:03;;;;;;;98.80;38.23;;;15.50;99.90;;;;;;5075603;28;20211;-68
2022/09/11 03:57:32;;;;;;;71.47;34.60;;;15.60;99.90;;;;;;5075592;28;20180;-68
2022/09/11 04:00:00;;;;;;;67.87;34.63;;;15.50;99.90;;;;;;5075088;28;20177;-69
2022/09/11 04:02:26;;;;;;;78.73;36.30;;;15.50;99.90;;;;;;5075502;28;20210;-68
2022/09/11 04:04:51;;;;;;;72.33;34.73;;;15.60;99.90;;;;;;5074416;28;20184;-68
2022/09/11 04:07:17;;;;;;;81.63;37.07;;;15.60;99.90;;;;;;5075331;28;20175;-68
2022/09/11 04:09:42;;;;;;;70.83;36.07;;;15.70;99.90;;;;;;5075343;28;20635;-68
2022/09/11 04:12:08;;;;;;;84.70;37.57;;;15.70;99.90;;;;;;5075337;28;20172;-68
2022/09/11 04:14:33;;;;;;;85.13;37.10;;;15.70;99.90;;;;;;5074171;28;20168;-68
2022/09/11 04:16:59;;;;;;;101.37;36.20;;;15.70;99.90;;;;;;5073982;28;20213;-68
2022/09/11 04:19:25;;;;;;;123.77;39.80;;;15.60;99.90;;;;;;5075110;28;20171;-68
2022/09/11 04:21:50;;;;;;;131.03;38.10;;;15.60;99.90;;;;;;5075081;28;20176;-68
2022/09/11 04:24:16;;;;;;;101.00;36.20;;;15.50;99.90;;;;;;5073940;28;20200;-68
2022/09/11 04:26:41;;;;;;;175.43;39.67;;;15.30;99.90;;;;;;5074583;28;20290;-69
2022/09/11 04:29:07;;;;;;;298.43;46.70;;;15.40;99.90;;;;;;5074749;28;20172;-68
2022/09/11 04:31:34;;;;;;;114.10;35.10;;;15.40;99.90;;;;;;5075014;28;20191;-68
2022/09/11 04:34:00;;;;;;;102.43;35.20;;;15.40;99.90;;;;;;5074674;28;20177;-68
2022/09/11 04:36:26;;;;;;;110.03;35.53;;;15.50;99.90;;;;;;5074645;28;20230;-67
2022/09/11 04:38:57;;;;;;;446.60;51.20;;;15.40;99.90;;;;;;5074626;28;20565;-68
2022/09/11 04:41:23;;;;;;;186.90;39.70;;;15.30;99.90;;;;;;5074746;28;20185;-68
2022/09/11 04:43:56;;;;;;;196.90;39.67;;;15.30;99.90;;;;;;5074482;28;20168;-68
2022/09/11 04:46:25;;;;;;;117.53;39.40;;;15.30;99.90;;;;;;5073093;28;20220;-68
2022/09/11 04:48:58;;;;;;;410.93;45.70;;;15.30;99.90;;;;;;5074564;28;20271;-69
2022/09/11 04:51:32;;;;;;;338.93;46.90;;;15.40;99.90;;;;;;5073959;28;20222;-70
2022/09/11 04:53:58;;;;;;;443.30;50.77;;;15.50;99.90;;;;;;5073923;28;20621;-68
2022/09/11 04:56:28;;;;;;;148.67;37.60;;;15.40;99.90;;;;;;5074243;28;20554;-69
2022/09/11 04:58:56;;;;;;;119.27;37.27;;;15.30;99.90;;;;;;5074098;28;20210;-68
2022/09/11 05:01:27;;;;;;;124.67;38.93;;;15.40;99.90;;;;;;5074198;28;20194;-68
2022/09/11 05:03:53;;;;;;;173.17;41.60;;;15.40;99.90;;;;;;5074367;28;20177;-69
2022/09/11 05:06:18;;;;;;;176.20;40.70;;;15.40;99.90;;;;;;5073836;28;20262;-69
2022/09/11 05:08:45;;;;;;;84.70;35.57;;;15.50;99.90;;;;;;5073907;28;20172;-69
2022/09/11 05:11:12;;;;;;;80.00;35.13;;;15.50;99.90;;;;;;5073801;28;20183;-69
2022/09/11 05:13:39;;;;;;;108.07;34.50;;;15.60;99.90;;;;;;5072951;28;20624;-68
2022/09/11 05:16:10;;;;;;;156.80;34.97;;;15.50;99.90;;;;;;5073769;28;20221;-69
2022/09/11 05:18:36;;;;;;;136.60;31.20;;;15.50;99.90;;;;;;5074039;28;20192;-68
2022/09/11 05:21:13;;;;;;;134.87;33.17;;;15.30;99.90;;;;;;5073812;28;20204;-68
2022/09/11 05:23:40;;;;;;;160.10;36.23;;;15.30;99.90;;;;;;5074024;28;20639;-68
2022/09/11 05:26:13;;;;;;;267.50;40.60;;;15.30;99.90;;;;;;5073371;28;20292;-67
2022/09/11 05:28:38;;;;;;;235.53;42.57;;;15.30;99.90;;;;;;5072256;28;20169;-69
2022/09/11 05:31:17;;;;;;;117.57;37.47;;;15.30;99.90;;;;;;5072167;28;20183;-69
2022/09/11 05:33:44;;;;;;;107.10;36.50;;;15.40;99.90;;;;;;5073633;28;20165;-69
2022/09/11 05:36:11;;;;;;;409.80;51.63;;;15.50;99.90;;;;;;5073694;28;20176;-68
2022/09/11 05:38:37;;;;;;;130.07;38.33;;;15.40;99.90;;;;;;5073515;28;20176;-68
2022/09/11 05:41:05;;;;;;;111.33;33.37;;;15.50;99.90;;;;;;5073019;28;20196;-68
2022/09/11 05:43:32;;;;;;;69.43;32.37;;;15.50;99.90;;;;;;5073226;28;20168;-67
2022/09/11 05:45:59;;;;;;;235.97;41.97;;;15.50;99.90;;;;;;5073583;28;20212;-68
2022/09/11 05:48:27;;;;;;;214.73;41.43;;;15.50;99.90;;;;;;5073159;28;20172;-68
2022/09/11 05:50:59;;;;;;;114.33;36.83;;;15.50;99.90;;;;;;5072982;28;20225;-68
2022/09/11 05:53:27;;;;;;;128.77;39.67;;;15.50;99.90;;;;;;5072865;28;20169;-68
2022/09/11 05:55:53;;;;;;;96.80;36.20;;;15.60;99.90;;;;;;5072800;28;20178;-68
2022/09/11 05:58:19;;;;;;;186.03;41.73;;;15.70;99.90;;;;;;5073225;28;20224;-69
2022/09/11 06:00:45;;;;;;;82.93;33.60;;;15.70;99.90;;;;;;5073231;28;20173;-67
2022/09/11 06:03:12;;;;;;;46.90;30.97;;;15.60;99.90;;;;;;5073091;28;20225;-68
2022/09/11 06:05:38;;;;;;;54.90;32.63;;;15.60;99.90;;;;;;5072407;28;20204;-69
2022/09/11 06:08:06;;;;;;;54.60;31.57;;;15.80;99.90;;;;;;5073114;28;20165;-68
2022/09/11 06:10:31;;;;;;;47.37;30.07;;;15.90;99.90;;;;;;5071531;28;20635;-68
2022/09/11 06:12:57;;;;;;;51.17;32.10;;;16.00;99.90;;;;;;5072574;28;20168;-68
2022/09/11 06:15:24;;;;;;;44.97;30.63;;;16.00;99.90;;;;;;5071160;28;20906;-68
2022/09/11 06:17:50;;;;;;;47.90;31.23;;;16.00;99.90;;;;;;5072814;28;20175;-68
2022/09/11 06:20:15;;;;;;;43.27;30.07;;;16.20;99.90;;;;;;5072753;28;20172;-67
2022/09/11 06:22:41;;;;;;;40.60;29.73;;;16.40;99.90;;;;;;5072653;28;20173;-67
2022/09/11 06:25:08;;;;;;;40.40;29.27;;;16.50;99.90;;;;;;5072405;28;20199;-68
2022/09/11 06:27:33;;;;;;;38.10;27.67;;;16.40;99.90;;;;;;5072819;28;20196;-69
2022/09/11 06:29:59;;;;;;;43.40;29.67;;;16.50;99.90;;;;;;5072540;28;20245;-69
2022/09/11 06:32:24;;;;;;;39.40;27.93;;;16.60;99.90;;;;;;5072177;28;20264;-67
2022/09/11 06:34:50;;;;;;;36.77;28.43;;;16.80;99.90;;;;;;5072426;28;20168;-68
2022/09/11 06:37:16;;;;;;;36.27;28.50;;;16.80;99.90;;;;;;5072911;28;20172;-68
2022/09/11 06:39:41;;;;;;;39.57;29.30;;;16.60;99.90;;;;;;5072098;28;20180;-68
2022/09/11 06:42:07;;;;;;;37.67;29.93;;;16.70;99.90;;;;;;5072554;28;20267;-69
2022/09/11 06:44:33;;;;;;;41.93;30.30;;;16.80;99.90;;;;;;5073278;28;20172;-67
2022/09/11 06:46:59;;;;;;;43.23;30.47;;;16.90;99.90;;;;;;5072322;28;20208;-67
2022/09/11 06:49:25;;;;;;;41.97;30.60;;;17.20;99.90;;;;;;5072380;28;20215;-67
2022/09/11 06:51:52;;;;;;;38.43;28.77;;;17.50;99.90;;;;;;5072414;28;20272;-67
2022/09/11 06:54:18;;;;;;;36.03;28.87;;;17.50;99.90;;;;;;5072048;28;20165;-68
2022/09/11 06:56:44;;;;;;;34.13;28.03;;;17.60;99.90;;;;;;5071220;28;20180;-68
2022/09/11 06:59:10;;;;;;;31.73;27.75;;;17.70;99.90;;;;;;5071609;28;20535;-68
2022/09/11 07:01:38;;;;;;;31.43;26.87;;;17.90;99.90;;;;;;5072436;28;20179;-68
2022/09/11 07:04:04;;;;;;;32.93;27.20;;;18.10;99.90;;;;;;5072374;28;20196;-68
2022/09/11 07:06:30;;;;;;;32.33;26.70;;;18.40;99.90;;;;;;5072364;28;20291;-68
2022/09/11 07:09:01;;;;;;;31.48;26.35;;;18.50;99.90;;;;;;5071945;28;20183;-68
2022/09/11 07:11:31;;;;;;;32.22;26.48;;;18.70;99.90;;;;;;5072387;28;20302;-68
2022/09/11 07:13:57;;;;;;;32.33;26.45;;;18.80;99.90;;;;;;5072462;28;20230;-68
2022/09/11 07:16:22;;;;;;;33.85;27.60;;;18.90;99.90;;;;;;5072852;28;20220;-69
2022/09/11 07:18:48;;;;;;;33.50;28.00;;;19.00;99.90;;;;;;5076161;28;20168;-69
2022/09/11 07:21:25;;;;;;;35.05;28.75;;;19.10;99.90;;;;;;5076022;28;20248;-69
2022/09/11 07:23:53;;;;;;;32.72;28.30;;;19.20;99.90;;;;;;5074578;28;20271;-69
2022/09/11 07:26:21;;;;;;;33.55;28.45;;;19.30;99.30;;;;;;5075744;28;20255;-69
2022/09/11 07:28:51;;;;;;;32.88;26.95;;;19.30;95.40;;;;;;5076134;28;20165;-69
2022/09/11 07:31:19;;;;;;;33.80;27.80;;;18.90;99.90;;;;;;5075190;28;20173;-69
2022/09/11 07:33:49;;;;;;;32.42;27.35;;;19.20;99.90;;;;;;5075878;28;20168;-70
2022/09/11 07:36:26;;;;;;;32.25;26.30;;;19.80;98.50;;;;;;5075811;28;20628;-70
2022/09/11 07:38:53;;;;;;;33.30;25.80;;;20.40;55.40;;;;;;5075104;28;20251;-70
2022/09/11 07:41:20;;;;;;;35.00;30.17;;;20.90;32.80;;;;;;5075392;28;20165;-70
2022/09/11 07:43:50;;;;;;;28.83;25.80;;;21.20;14.90;;;;;;5075305;28;20176;-71
2022/09/11 07:46:16;;;;;;;27.30;23.73;;;21.70;7.70;;;;;;5075645;28;20196;-71
2022/09/11 07:48:42;;;;;;;26.48;23.85;;;22.80;1.00;;;;;;5075490;28;20177;-71
2022/09/11 07:51:10;;;;;;;27.63;24.65;;;23.40;1.00;;;;;;5075127;28;20173;-71
2022/09/11 07:53:38;;;;;;;26.25;23.15;;;23.60;1.00;;;;;;5074984;28;20165;-71
2022/09/11 07:56:09;;;;;;;24.88;22.17;;;24.50;1.00;;;;;;5074921;28;20207;-72
2022/09/11 07:58:38;;;;;;;26.08;23.27;;;25.60;1.00;;;;;;5075465;28;20181;-71
2022/09/11 08:01:05;;;;;;;26.45;23.73;;;26.50;99.90;;;;;;5075101;28;20169;-72
2022/09/11 08:03:32;;;;;;;25.23;22.73;;;27.20;99.90;;;;;;5074758;28;20179;-71
2022/09/11 08:05:59;;;;;;;24.30;21.70;;;27.70;1.00;;;;;;5074814;28;20215;-71
2022/09/11 08:08:28;;;;;;;25.50;22.85;;;28.40;1.00;;;;;;5074712;28;20169;-72
2022/09/11 08:11:13;;;;;;;24.83;22.55;;;29.40;1.00;;;;;;5074915;28;20183;-71
2022/09/11 08:13:40;;;;;;;24.60;22.13;;;30.30;1.00;;;;;;5075284;28;20169;-71
2022/09/11 08:16:06;;;;;;;24.77;22.42;;;31.30;99.90;;;;;;5074230;28;20726;-73
2022/09/11 08:18:34;;;;;;;24.88;22.65;;;31.90;1.00;;;;;;5074989;28;20292;-72
2022/09/11 08:21:04;;;;;;;24.00;21.80;;;32.20;1.00;;;;;;5074687;28;20180;-71
2022/09/11 08:23:31;;;;;;;25.48;23.17;;;32.60;1.00;;;;;;5074522;28;20177;-71
2022/09/11 08:26:05;;;;;;;24.63;22.33;;;32.80;1.00;;;;;;5075038;28;20216;-72
2022/09/11 08:28:33;;;;;;;25.35;23.10;;;33.20;99.90;;;;;;5073543;28;20168;-73
2022/09/11 08:31:00;;;;;;;24.70;22.35;;;33.20;99.90;;;;;;5074904;28;20173;-71
2022/09/11 08:33:29;;;;;;;25.55;23.13;;;33.40;99.90;;;;;;5074578;28;20157;-72
2022/09/11 08:35:56;;;;;;;24.15;21.77;;;34.00;99.90;;;;;;5074379;28;20487;-72
2022/09/11 08:38:23;;;;;;;23.77;21.55;;;33.60;99.90;;;;;;5073021;28;20506;-73
2022/09/11 08:40:49;;;;;;;24.17;22.08;;;32.70;1.00;;;;;;5074300;28;20176;-73
2022/09/11 08:43:22;;;;;;;24.45;22.15;;;33.90;99.90;;;;;;5074667;28;20219;-72
2022/09/11 08:45:50;;;;;;;23.85;21.65;;;33.70;99.90;;;;;;5074470;28;20236;-73
2022/09/11 08:48:22;;;;;;;24.80;22.40;;;33.20;99.90;;;;;;5073757;28;20165;-73
2022/09/11 08:50:48;;;;;;;24.10;21.77;;;32.90;1.00;;;;;;5073869;28;20182;-72
2022/09/11 08:53:17;;;;;;;23.25;21.17;;;33.60;99.90;;;;;;5074255;28;20251;-72
2022/09/11 08:55:55;;;;;;;22.52;20.48;;;34.50;99.90;;;;;;5074288;28;20525;-72
2022/09/11 08:58:23;;;;;;;22.40;20.60;;;35.30;99.90;;;;;;5074195;28;20168;-71
2022/09/11 09:01:11;;;;;;;20.40;18.77;;;35.20;99.90;;;;;;5073958;28;20237;-72
2022/09/11 09:04:07;;;;;;;20.98;19.13;;;35.00;99.90;;;;;;5073314;28;20217;-73
2022/09/11 09:06:39;;;;;;;21.65;19.75;;;35.60;99.90;;;;;;5073649;28;20553;-72
2022/09/11 09:09:39;;;;;;;22.60;20.38;;;36.00;99.90;;;;;;5073513;28;20197;-72
2022/09/11 09:12:31;;;;;;;22.95;20.67;;;34.70;99.90;;;;;;5073506;28;20176;-72
2022/09/11 09:15:24;;;;;;;23.80;21.63;;;34.70;99.90;;;;;;5066439;28;20212;-73
2022/09/11 09:17:59;;;;;;;23.02;20.92;;;35.30;99.90;;;;;;5073709;28;20169;-71
2022/09/11 09:20:45;;;;;;;23.40;21.30;;;35.30;99.90;;;;;;5073611;28;20163;-72
2022/09/11 09:23:17;;;;;;;21.17;19.27;;;33.60;99.90;;;;;;5073030;28;20683;-72
2022/09/11 09:25:44;;;;;;;23.85;21.83;;;33.70;99.90;;;;;;5073298;28;20597;-72
2022/09/11 09:28:24;;;;;;;23.80;21.70;;;34.30;99.90;;;;;;5073166;28;20168;-73
2022/09/11 09:30:58;;;;;;;24.65;22.35;;;34.20;99.90;;;;;;5072430;28;20183;-72
2022/09/11 09:33:31;;;;;;;23.67;21.48;;;34.20;99.90;;;;;;5072583;28;20217;-72
2022/09/11 09:36:10;;;;;;;23.73;21.63;;;34.40;99.90;;;;;;5073470;28;20174;-73
2022/09/11 09:38:36;;;;;;;23.55;21.48;;;34.20;99.90;;;;;;5072970;28;20183;-73
2022/09/11 09:41:10;;;;;;;21.77;19.88;;;33.70;99.90;;;;;;5073034;28;20176;-73
2022/09/11 09:43:49;;;;;;;22.58;20.58;;;34.10;99.90;;;;;;5073052;28;20166;-73
2022/09/11 09:46:36;;;;;;;23.02;20.92;;;34.60;99.90;;;;;;5073367;28;20204;-73
2022/09/11 09:49:02;;;;;;;23.58;21.58;;;35.30;99.90;;;;;;5072862;28;20176;-73
2022/09/11 09:51:28;;;;;;;23.38;21.27;;;34.40;99.90;;;;;;5072886;28;20628;-73
2022/09/11 09:54:00;;;;;;;21.17;19.38;;;34.70;99.90;;;;;;5072996;28;20639;-73
2022/09/11 09:56:29;;;;;;;24.08;21.98;;;34.20;99.90;;;;;;5073080;28;20229;-73
2022/09/11 09:59:10;;;;;;;25.65;23.40;;;33.30;99.90;;;;;;5072049;28;20623;-73
2022/09/11 10:01:43;;;;;;;24.65;22.55;;;32.60;99.90;;;;;;5072763;28;20203;-74
2022/09/11 10:04:14;;;;;;;23.65;21.60;;;32.40;99.90;;;;;;5072785;28;20219;-73
2022/09/11 10:06:40;;;;;;;25.63;23.20;;;32.20;1.00;;;;;;5072524;28;20204;-73
2022/09/11 10:09:16;;;;;;;22.27;20.35;;;32.50;1.00;;;;;;5072781;28;20226;-73
2022/09/11 10:11:42;;;;;;;23.17;21.17;;;32.90;1.00;;;;;;5072167;28;20176;-73
2022/09/11 10:14:19;;;;;;;25.55;23.15;;;33.40;99.90;;;;;;5072750;28;20243;-74
2022/09/11 10:16:49;;;;;;;24.48;22.38;;;33.80;99.90;;;;;;5072672;28;20217;-73
2022/09/11 10:19:41;;;;;;;22.55;20.65;;;34.00;99.90;;;;;;5072666;28;20172;-73
2022/09/11 10:22:33;;;;;;;23.02;21.02;;;32.70;99.90;;;;;;5072446;28;20195;-72
2022/09/11 10:25:14;;;;;;;22.08;19.98;;;33.40;99.90;;;;;;5070747;28;20267;-72
2022/09/11 10:27:50;;;;;;;22.05;20.20;;;32.40;99.90;;;;;;5072813;28;20181;-73
2022/09/11 10:30:28;;;;;;;21.73;19.83;;;32.00;1.00;;;;;;5072427;28;20161;-72
2022/09/11 10:32:57;;;;;;;19.33;17.73;;;32.00;1.00;;;;;;5072611;28;20207;-72
2022/09/11 10:35:26;;;;;;;15.20;13.90;;;31.70;1.00;;;;;;5072677;28;20202;-73
2022/09/11 10:38:18;;;;;;;19.00;17.30;;;31.90;1.00;;;;;;5072360;28;20176;-73
2022/09/11 10:41:07;;;;;;;13.98;12.85;;;32.30;99.90;;;;;;5069964;28;20180;-73
2022/09/11 10:43:44;;;;;;;14.57;13.25;;;32.50;99.90;;;;;;5072919;28;20168;-73
2022/09/11 10:46:27;;;;;;;15.02;13.63;;;32.80;99.90;;;;;;5072065;28;20211;-73
2022/09/11 10:49:14;;;;;;;12.75;11.68;;;32.80;99.90;;;;;;5072516;28;20165;-73
2022/09/11 10:51:42;;;;;;;13.52;12.32;;;33.30;99.90;;;;;;5074300;28;20180;-72
2022/09/11 10:54:45;;;;;;;14.95;13.75;;;32.80;99.90;;;;;;5076167;28;20589;-72
2022/09/11 10:57:25;;;;;;;9.20;8.45;;;33.20;99.90;;;;;;5076296;28;20172;-74
2022/09/11 11:00:08;;;;;;;9.68;9.02;;;33.20;99.90;;;;;;5075710;28;20167;-74
2022/09/11 11:02:36;;;;;;;9.90;9.18;;;33.30;99.90;;;;;;5075444;28;20244;-74
2022/09/11 11:05:07;;;;;;;13.05;11.95;;;32.50;99.90;;;;;;5076516;28;20192;-73
2022/09/11 11:08:01;;;;;;;12.40;11.30;;;31.20;99.90;;;;;;5075144;28;20229;-73
2022/09/11 11:10:51;;;;;;;11.63;10.63;;;30.60;1.00;;;;;;5075886;28;20165;-73
2022/09/11 11:13:45;;;;;;;11.88;10.85;;;29.60;1.70;;;;;;5075528;28;20169;-74
2022/09/11 11:16:20;;;;;;;12.48;11.38;;;29.50;1.00;;;;;;5075221;28;20225;-73
2022/09/11 11:19:16;;;;;;;11.75;10.75;;;29.90;1.00;;;;;;5075597;28;20191;-73
2022/09/11 11:22:11;;;;;;;12.38;11.18;;;29.10;1.00;;;;;;5075993;28;20183;-71
2022/09/11 11:25:13;;;;;;;10.90;9.93;;;28.80;99.90;;;;;;5075760;28;20168;-72
2022/09/11 11:28:12;;;;;;;11.70;10.80;;;29.00;1.00;;;;;;5075293;28;20665;-72
2022/09/11 11:30:54;;;;;;;11.07;10.18;;;29.10;1.00;;;;;;5073993;28;20172;-71
2022/09/11 11:33:31;;;;;;;10.15;9.35;;;29.70;99.90;;;;;;5074246;28;20172;-73
2022/09/11 11:36:07;;;;;;;11.07;9.98;;;30.00;1.00;;;;;;5075380;28;20177;-72
2022/09/11 11:38:59;;;;;;;10.93;10.02;;;30.20;1.00;;;;;;5075478;28;20620;-71
2022/09/11 11:41:34;;;;;;;9.45;8.70;;;30.20;1.00;;;;;;5075351;28;20172;-71
2022/09/11 11:44:03;;;;;;;9.38;8.68;;;30.10;1.00;;;;;;5073651;28;20259;-72
2022/09/11 11:46:42;;;;;;;9.18;8.40;;;30.30;1.00;;;;;;5075193;28;20200;-73
2022/09/11 11:49:18;;;;;;;11.15;9.18;;;30.30;1.00;;;;;;5075227;28;20636;-73
2022/09/11 11:51:54;;;;;;;8.52;7.80;;;30.30;1.00;;;;;;5075464;28;20302;-72
2022/09/11 11:54:40;;;;;;;10.10;9.25;;;30.50;1.00;;;;;;5075366;28;20164;-72
2022/09/11 11:57:13;;;;;;;9.85;9.05;;;30.30;99.90;;;;;;5075310;28;20199;-72
2022/09/11 12:00:08;;;;;;;10.20;9.40;;;29.50;1.00;;;;;;5074874;28;20255;-72
2022/09/11 12:02:55;;;;;;;9.70;8.90;;;29.10;1.00;;;;;;5071791;28;20188;-73
2022/09/11 12:05:27;;;;;;;9.10;8.25;;;28.40;99.90;;;;;;5075054;28;20197;-73
2022/09/11 12:07:53;;;;;;;9.98;8.98;;;28.60;1.00;;;;;;5075006;28;20169;-73
2022/09/11 12:10:21;;;;;;;9.18;8.32;;;28.50;99.90;;;;;;5074577;28;20168;-72
2022/09/11 12:12:51;;;;;;;8.75;8.05;;;28.30;1.00;;;;;;5074177;28;20176;-72
2022/09/11 12:15:20;;;;;;;8.90;8.20;;;28.10;92.90;;;;;;5074849;28;20721;-72
2022/09/11 12:17:58;;;;;;;8.05;7.38;;;27.10;99.90;;;;;;5074549;28;20254;-71
2022/09/11 12:20:32;;;;;;;8.07;7.47;;;26.50;98.60;;;;;;5074874;28;20175;-71
2022/09/11 12:22:59;;;;;;;7.95;7.28;;;26.20;26.90;;;;;;5074608;28;20215;-73
2022/09/11 12:25:28;;;;;;;8.02;7.43;;;26.10;1.00;;;;;;5073462;28;20223;-73
2022/09/11 12:28:29;;;;;;;8.82;7.55;;;25.90;92.10;;;;;;5074366;28;20169;-71
2022/09/11 12:31:12;;;;;;;7.72;7.03;;;25.60;99.90;;;;;;5032486;28;20182;-72
2022/09/11 12:33:40;;;;;;;9.25;8.35;;;25.10;1.00;;;;;;5032325;28;20231;-73
2022/09/11 12:36:32;;;;;;;7.88;7.28;;;24.50;1.00;;;;;;5032721;28;20174;-72
2022/09/11 12:39:19;;;;;;;7.93;7.18;;;24.30;44.10;;;;;;5014371;28;20664;-70
2022/09/11 12:41:45;;;;;;;9.32;8.23;;;24.50;99.90;;;;;;5031681;28;20172;-72
2022/09/11 12:44:44;;;;;;;9.32;8.43;;;24.20;1.00;;;;;;5032264;28;20556;-72
2022/09/11 12:47:24;;;;;;;8.25;7.65;;;23.90;1.00;;;;;;5032104;28;20219;-71
2022/09/11 12:50:04;;;;;;;8.38;7.60;;;23.30;1.00;;;;;;5031795;28;20228;-72
2022/09/11 12:52:44;;;;;;;7.80;7.15;;;23.40;1.00;;;;;;5032130;28;20231;-71
2022/09/11 12:55:50;;;;;;;7.47;6.80;;;23.20;1.00;;;;;;5031743;28;20185;-72
2022/09/11 12:58:18;;;;;;;6.63;6.03;;;22.40;1.00;;;;;;4992795;28;20590;-71